createdAt,value
2017-09-13T12:41:30.697Z,2.70
2017-09-13T12:42:30.696Z,3.20
2017-09-13T12:43:30.697Z,3.10
2017-09-13T12:44:30.695Z,2.70
2017-09-13T12:45:30.696Z,3.10
2017-09-13T12:46:30.700Z,2.80
2017-09-13T12:47:30.702Z,3.30
2017-09-13T12:48:30.703Z,3.30
2017-09-13T12:49:30.704Z,3.00
2017-09-13T12:50:30.707Z,3.30
2017-09-13T12:51:30.710Z,3.30
2017-09-13T12:52:30.717Z,2.80
2017-09-13T12:53:30.717Z,3.40
2017-09-13T12:54:30.721Z,3.10
2017-09-13T12:55:30.723Z,3.50
2017-09-13T12:56:30.725Z,3.10
2017-09-13T12:57:30.727Z,3.20
2017-09-13T12:58:30.730Z,3.20
2017-09-13T12:59:30.732Z,3.10
2017-09-13T13:00:30.731Z,3.30
2017-09-13T13:01:30.734Z,3.30
2017-09-13T13:02:30.737Z,3.10
2017-09-13T13:03:30.742Z,3.60
2017-09-13T13:04:30.742Z,3.30
2017-09-13T13:05:30.747Z,3.20
2017-09-13T13:06:30.750Z,3.40
2017-09-13T13:07:30.751Z,3.60
2017-09-13T13:08:30.825Z,3.80
2017-09-13T13:09:30.873Z,3.10
2017-09-13T13:10:30.847Z,3.60
2017-09-13T13:11:30.912Z,3.40
2017-09-13T13:12:30.907Z,3.50
2017-09-13T13:13:30.791Z,3.60
2017-09-13T13:14:30.843Z,3.30
2017-09-13T13:15:30.868Z,3.20
2017-09-13T13:16:30.882Z,3.60
2017-09-13T13:17:30.800Z,3.40
2017-09-13T13:18:30.778Z,3.50
2017-09-13T13:19:30.782Z,3.30
2017-09-13T13:20:30.784Z,3.20
2017-09-13T13:21:30.786Z,3.20
2017-09-13T13:22:30.788Z,3.30
2017-09-13T13:23:30.792Z,3.40
2017-09-13T13:24:30.796Z,3.10
2017-09-13T13:25:30.799Z,3.10
2017-09-13T13:26:30.802Z,3.20
2017-09-13T13:27:30.805Z,3.20
2017-09-13T13:28:30.805Z,3.60
2017-09-13T13:29:30.808Z,3.00
2017-09-13T13:30:30.811Z,3.20
2017-09-13T13:31:30.814Z,3.00
2017-09-13T13:32:30.810Z,3.20
2017-09-13T13:33:30.812Z,2.90
2017-09-13T13:34:30.814Z,3.20
2017-09-13T13:35:30.817Z,2.90
2017-09-13T13:36:30.819Z,2.90
2017-09-13T13:37:30.824Z,3.00
2017-09-13T13:38:30.822Z,2.80
2017-09-13T13:39:30.824Z,3.00
2017-09-13T13:40:30.836Z,2.90
2017-09-13T13:41:30.832Z,3.10
2017-09-13T13:42:30.835Z,2.50
2017-09-13T13:43:30.837Z,2.70
2017-09-13T13:44:30.834Z,3.30
2017-09-13T13:45:30.835Z,3.00
2017-09-13T13:46:30.838Z,3.20
2017-09-13T13:47:30.840Z,2.90
2017-09-13T13:48:30.846Z,3.50
2017-09-13T13:49:30.847Z,2.90
2017-09-13T13:50:30.849Z,2.80
2017-09-13T13:51:30.852Z,2.70
2017-09-13T13:52:30.853Z,2.80
2017-09-13T13:53:30.856Z,2.70
2017-09-13T13:54:30.858Z,2.80
2017-09-13T13:55:30.860Z,3.00
2017-09-13T13:56:30.857Z,2.70
2017-09-13T13:57:30.859Z,2.90
2017-09-13T13:58:30.862Z,2.80
2017-09-13T13:59:30.862Z,2.80
2017-09-13T14:00:30.865Z,2.80
2017-09-13T14:01:30.866Z,2.70
2017-09-13T14:02:30.869Z,2.70
2017-09-13T14:03:30.872Z,2.80
2017-09-13T14:04:30.876Z,2.60
2017-09-13T14:05:30.880Z,2.60
2017-09-13T14:06:30.881Z,2.80
2017-09-13T14:07:30.882Z,2.60
2017-09-13T14:08:30.884Z,2.50
2017-09-13T14:09:30.885Z,2.60
2017-09-13T14:10:30.887Z,2.10
2017-09-13T14:11:30.891Z,2.40
2017-09-13T14:12:30.885Z,2.40
2017-09-13T14:13:30.888Z,2.60
2017-09-13T14:14:30.895Z,2.70
2017-09-13T14:15:30.892Z,2.80
2017-09-13T14:16:30.892Z,2.90
2017-09-13T14:17:30.894Z,2.60
2017-09-13T14:18:30.896Z,2.50
2017-09-13T14:19:30.898Z,2.60
2017-09-13T14:20:30.902Z,2.30
2017-09-13T14:21:30.905Z,2.20
2017-09-13T14:22:30.906Z,2.20
2017-09-13T14:23:30.909Z,2.90
2017-09-13T14:24:30.908Z,2.70
2017-09-13T14:25:30.909Z,2.50
2017-09-13T14:26:30.912Z,2.40
2017-09-13T14:27:30.913Z,2.40
2017-09-13T14:28:30.910Z,2.60
2017-09-13T14:29:30.911Z,2.20
2017-09-13T14:30:30.912Z,2.30
2017-09-13T14:31:30.914Z,2.70
2017-09-13T14:32:30.914Z,2.60
2017-09-13T14:33:30.919Z,2.60
2017-09-13T14:34:30.917Z,2.50
2017-09-13T14:35:30.918Z,2.40
2017-09-13T14:36:30.923Z,2.90
2017-09-13T14:37:30.924Z,2.20
2017-09-13T14:38:30.925Z,2.40
2017-09-13T14:39:30.926Z,2.40
2017-09-13T14:40:30.927Z,2.30
2017-09-13T14:41:30.929Z,2.40
2017-09-13T14:42:30.930Z,2.20
2017-09-13T14:43:30.931Z,2.40
2017-09-13T14:44:30.927Z,2.70
2017-09-13T14:45:30.928Z,2.10
2017-09-13T14:46:30.930Z,2.10
2017-09-13T14:47:30.930Z,2.40
2017-09-13T14:48:30.938Z,2.70
2017-09-13T14:49:30.938Z,2.40
2017-09-13T14:50:30.939Z,2.50
2017-09-13T14:51:30.940Z,2.40
2017-09-13T14:52:30.937Z,2.30
2017-09-13T14:53:30.938Z,2.60
2017-09-13T14:54:30.940Z,2.40
2017-09-13T14:55:30.941Z,2.40
2017-09-13T14:56:30.944Z,2.10
2017-09-13T14:57:30.942Z,2.20
2017-09-13T14:58:30.943Z,2.40
2017-09-13T14:59:30.945Z,2.10
2017-09-13T15:00:30.949Z,3.10
2017-09-13T15:01:30.951Z,2.30
2017-09-13T15:02:30.952Z,2.00
2017-09-13T15:03:30.952Z,2.40
2017-09-13T15:04:30.953Z,2.20
2017-09-13T15:05:30.955Z,2.40
2017-09-13T15:06:30.960Z,2.10
2017-09-13T15:07:30.961Z,2.10
2017-09-13T15:08:30.977Z,2.20
2017-09-13T15:09:30.956Z,2.40
2017-09-13T15:10:30.968Z,2.40
2017-09-13T15:11:30.953Z,2.50
2017-09-13T15:12:30.975Z,2.20
2017-09-13T15:13:30.955Z,1.90
2017-09-13T15:14:30.955Z,2.40
2017-09-13T15:15:30.963Z,1.90
2017-09-13T15:16:30.959Z,2.20
2017-09-13T15:17:30.980Z,2.10
2017-09-13T15:18:30.960Z,1.90
2017-09-13T15:19:30.960Z,1.90
2017-09-13T15:20:30.959Z,2.00
2017-09-13T15:21:30.960Z,2.10
2017-09-13T15:22:30.960Z,1.80
2017-09-13T15:23:30.962Z,1.90
2017-09-13T15:24:30.956Z,2.00
2017-09-13T15:25:30.956Z,1.90
2017-09-13T15:26:30.957Z,1.80
2017-09-13T15:27:30.957Z,1.70
2017-09-13T15:28:30.956Z,1.80
2017-09-13T15:29:30.957Z,2.20
2017-09-13T15:30:30.957Z,2.00
2017-09-13T15:31:30.957Z,2.00
2017-09-13T15:32:30.962Z,1.70
2017-09-13T15:33:30.963Z,1.70
2017-09-13T15:34:30.963Z,2.20
2017-09-13T15:35:30.961Z,1.80
2017-09-13T15:36:30.961Z,1.80
2017-09-13T15:37:30.961Z,2.10
2017-09-13T15:38:30.962Z,1.80
2017-09-13T15:39:30.965Z,2.00
2017-09-13T15:40:30.957Z,1.90
2017-09-13T15:41:30.957Z,1.90
2017-09-13T15:42:30.959Z,1.90
2017-09-13T15:43:30.975Z,2.00
2017-09-13T15:44:30.957Z,2.00
2017-09-13T15:45:30.959Z,2.00
2017-09-13T15:46:30.958Z,2.00
2017-09-13T15:47:30.958Z,2.00
2017-09-13T15:48:30.962Z,2.20
2017-09-13T15:49:30.964Z,2.20
2017-09-13T15:50:30.963Z,2.10
2017-09-13T15:51:30.961Z,2.00
2017-09-13T15:52:30.959Z,1.90
2017-09-13T15:53:30.956Z,2.00
2017-09-13T15:54:30.956Z,2.10
2017-09-13T15:55:30.957Z,1.70
2017-09-13T15:56:30.960Z,1.60
2017-09-13T15:57:30.961Z,2.00
2017-09-13T15:58:30.961Z,1.90
2017-09-13T15:59:30.961Z,1.90
2017-09-13T16:00:30.960Z,2.10
2017-09-13T16:01:30.960Z,2.40
2017-09-13T16:02:30.966Z,1.90
2017-09-13T16:03:30.961Z,1.90
2017-09-13T16:04:30.956Z,2.10
2017-09-13T16:05:30.957Z,2.00
2017-09-13T16:06:30.957Z,2.60
2017-09-13T16:07:30.958Z,1.90
2017-09-13T16:08:30.958Z,2.00
2017-09-13T16:09:30.956Z,2.10
2017-09-13T16:10:30.956Z,1.90
2017-09-13T16:11:30.959Z,1.80
2017-09-13T16:12:30.961Z,2.20
2017-09-13T16:13:30.960Z,2.00
2017-09-13T16:14:30.961Z,2.20
2017-09-13T16:15:30.962Z,2.10
2017-09-13T16:16:30.962Z,1.90
2017-09-13T16:17:30.961Z,2.10
2017-09-13T16:18:30.959Z,2.10
2017-09-13T16:19:30.961Z,1.60
2017-09-13T16:20:30.955Z,2.60
2017-09-13T16:21:30.954Z,2.20
2017-09-13T16:22:30.955Z,2.20
2017-09-13T16:23:30.960Z,2.20
2017-09-13T16:24:30.956Z,2.10
2017-09-13T16:25:30.954Z,2.10
2017-09-13T16:26:30.954Z,2.20
2017-09-13T16:27:30.955Z,2.30
2017-09-13T16:28:30.955Z,2.10
2017-09-13T16:29:30.955Z,2.30
2017-09-13T16:30:30.957Z,2.60
2017-09-13T16:31:30.963Z,2.40
2017-09-13T16:32:30.957Z,2.20
2017-09-13T16:33:30.955Z,2.70
2017-09-13T16:34:30.953Z,2.30
2017-09-13T16:35:30.956Z,2.30
2017-09-13T16:36:30.950Z,2.40
2017-09-13T16:37:30.948Z,2.90
2017-09-13T16:38:30.948Z,2.50
2017-09-13T16:39:30.957Z,2.20
2017-09-13T16:40:30.947Z,2.70
2017-09-13T16:41:30.947Z,2.80
2017-09-13T16:42:30.947Z,2.60
2017-09-13T16:43:30.948Z,2.80
2017-09-13T16:44:30.948Z,2.80
2017-09-13T16:45:30.964Z,2.90
2017-09-13T16:46:30.949Z,2.90
2017-09-13T16:47:30.949Z,2.90
2017-09-13T16:48:30.948Z,2.80
2017-09-13T16:49:30.946Z,3.10
2017-09-13T16:50:30.947Z,2.60
2017-09-13T16:51:30.947Z,3.00
2017-09-13T16:52:30.942Z,2.70
2017-09-13T16:53:30.941Z,3.10
2017-09-13T16:54:30.941Z,3.00
2017-09-13T16:55:30.941Z,2.90
2017-09-13T16:56:30.938Z,3.20
2017-09-13T16:57:30.939Z,2.70
2017-09-13T16:58:30.939Z,3.00
2017-09-13T16:59:30.938Z,3.20
2017-09-13T17:00:30.962Z,3.00
2017-09-13T17:01:30.941Z,3.00
2017-09-13T17:02:30.941Z,3.40
2017-09-13T17:03:30.939Z,3.20
2017-09-13T17:04:30.938Z,3.10
2017-09-13T17:05:30.936Z,3.00
2017-09-13T17:06:30.937Z,2.70
2017-09-13T17:07:30.936Z,2.80
2017-09-13T17:08:30.931Z,3.30
2017-09-13T17:09:30.930Z,2.70
2017-09-13T17:10:30.929Z,3.00
2017-09-13T17:11:30.929Z,3.10
2017-09-13T17:12:30.928Z,3.00
2017-09-13T17:13:30.928Z,3.00
2017-09-13T17:14:30.925Z,3.20
2017-09-13T17:15:30.927Z,3.20
2017-09-13T17:16:30.929Z,3.10
2017-09-13T17:17:30.928Z,2.90
2017-09-13T17:18:30.928Z,3.00
2017-09-13T17:19:30.925Z,3.50
2017-09-13T17:20:30.924Z,3.10
2017-09-13T17:21:30.925Z,3.20
2017-09-13T17:22:30.924Z,3.50
2017-09-13T17:23:30.926Z,3.00
2017-09-13T17:24:30.918Z,3.20
2017-09-13T17:25:30.917Z,3.20
2017-09-13T17:26:30.917Z,3.20
2017-09-13T17:27:30.915Z,3.50
2017-09-13T17:28:30.912Z,3.70
2017-09-13T17:29:30.914Z,3.20
2017-09-13T17:30:30.912Z,3.10
2017-09-13T17:31:30.912Z,3.50
2017-09-13T17:32:30.936Z,3.30
2017-09-13T17:33:30.913Z,3.50
2017-09-13T17:34:30.917Z,3.40
2017-09-13T17:35:30.927Z,3.50
2017-09-13T17:36:30.911Z,4.30
2017-09-13T17:37:30.911Z,3.50
2017-09-13T17:38:30.908Z,3.80
2017-09-13T17:39:30.908Z,4.60
2017-09-13T17:40:30.903Z,3.70
2017-09-13T17:41:30.901Z,4.00
2017-09-13T17:42:30.900Z,4.10
2017-09-13T17:43:30.903Z,4.00
2017-09-13T17:44:30.897Z,3.90
2017-09-13T17:45:30.937Z,4.20
2017-09-13T17:46:30.897Z,3.60
2017-09-13T17:47:30.893Z,3.90
2017-09-13T17:48:30.895Z,3.60
2017-09-13T17:49:30.894Z,4.10
2017-09-13T17:50:30.894Z,4.00
2017-09-13T17:51:30.893Z,4.20
2017-09-13T17:52:30.900Z,4.00
2017-09-13T17:53:30.898Z,4.00
2017-09-13T17:54:30.888Z,4.50
2017-09-13T17:55:30.886Z,4.60
2017-09-13T17:56:30.878Z,4.20
2017-09-13T17:57:30.883Z,4.40
2017-09-13T17:58:30.878Z,4.30
2017-09-13T17:59:30.877Z,4.10
2017-09-13T18:00:30.879Z,4.30
2017-09-13T18:01:30.878Z,4.10
2017-09-13T18:02:30.875Z,3.70
2017-09-13T18:03:30.875Z,4.60
2017-09-13T18:04:30.892Z,4.30
2017-09-13T18:05:30.867Z,4.20
2017-09-13T18:06:30.865Z,4.60
2017-09-13T18:07:30.864Z,4.70
2017-09-13T18:08:30.862Z,4.00
2017-09-13T18:09:30.859Z,4.20
2017-09-13T18:10:30.859Z,4.40
2017-09-13T18:11:30.856Z,4.10
2017-09-13T18:12:30.859Z,3.80
2017-09-13T18:13:30.857Z,3.90
2017-09-13T18:14:30.865Z,3.70
2017-09-13T18:15:30.855Z,3.90
2017-09-13T18:16:30.851Z,3.90
2017-09-13T18:17:30.851Z,4.10
2017-09-13T18:18:30.848Z,4.30
2017-09-13T18:19:30.847Z,4.00
2017-09-13T18:20:30.841Z,4.10
2017-09-13T18:21:30.838Z,4.30
2017-09-13T18:22:30.838Z,5.00
2017-09-13T18:23:30.835Z,4.40
2017-09-13T18:24:30.835Z,3.90
2017-09-13T18:25:30.832Z,4.50
2017-09-13T18:26:30.829Z,4.80
2017-09-13T18:27:30.829Z,4.20
2017-09-13T18:28:30.829Z,4.00
2017-09-13T18:29:30.827Z,3.70
2017-09-13T18:30:30.826Z,4.40
2017-09-13T18:31:30.825Z,4.20
2017-09-13T18:32:30.821Z,4.70
2017-09-13T18:33:30.820Z,4.30
2017-09-13T18:34:30.825Z,4.70
2017-09-13T18:35:30.823Z,4.30
2017-09-13T18:36:30.810Z,4.30
2017-09-13T18:37:30.809Z,3.80
2017-09-13T18:38:30.807Z,4.00
2017-09-13T18:39:30.805Z,4.10
2017-09-13T18:40:30.803Z,4.40
2017-09-13T18:41:30.802Z,3.90
2017-09-13T18:42:30.801Z,4.40
2017-09-13T18:43:30.799Z,4.40
2017-09-13T18:44:30.800Z,4.60
2017-09-13T18:45:30.800Z,4.30
2017-09-13T18:46:30.801Z,3.80
2017-09-13T18:47:30.795Z,4.60
2017-09-13T18:48:30.793Z,4.40
2017-09-13T18:49:30.792Z,4.00
2017-09-13T18:50:30.789Z,4.10
2017-09-13T18:51:30.795Z,4.10
2017-09-13T18:52:30.779Z,4.60
2017-09-13T18:53:30.804Z,3.90
2017-09-13T18:54:30.800Z,4.60
2017-09-13T18:55:30.798Z,4.50
2017-09-13T18:56:30.781Z,4.50
2017-09-13T18:57:30.774Z,4.40
2017-09-13T18:58:30.786Z,4.10
2017-09-13T18:59:30.769Z,4.60
2017-09-13T19:00:30.768Z,4.50
2017-09-13T19:01:30.767Z,4.10
2017-09-13T19:02:30.765Z,4.00
2017-09-13T19:03:30.764Z,4.00
2017-09-13T19:04:30.755Z,4.10
2017-09-13T19:05:30.757Z,4.30
2017-09-13T19:06:30.757Z,4.40
2017-09-13T19:07:30.751Z,4.20
2017-09-13T19:08:30.784Z,4.60
2017-09-13T19:09:30.751Z,4.20
2017-09-13T19:10:30.749Z,4.10
2017-09-13T19:11:30.746Z,4.10
2017-09-13T19:12:30.744Z,4.80
2017-09-13T19:13:30.743Z,4.50
2017-09-13T19:14:30.741Z,4.20
2017-09-13T19:15:30.753Z,4.10
2017-09-13T19:16:30.744Z,4.00
2017-09-13T19:17:30.729Z,4.60
2017-09-13T19:18:30.733Z,4.30
2017-09-13T19:19:30.729Z,4.40
2017-09-13T19:20:30.774Z,3.90
2017-09-13T19:21:30.722Z,3.90
2017-09-13T19:22:30.720Z,4.20
2017-09-13T19:23:30.719Z,4.30
2017-09-13T19:24:30.738Z,3.70
2017-09-13T19:25:30.721Z,4.40
2017-09-13T19:26:30.718Z,3.60
2017-09-13T19:27:30.714Z,4.20
2017-09-13T19:28:30.711Z,3.90
2017-09-13T19:29:30.723Z,4.30
2017-09-13T19:30:30.707Z,4.00
2017-09-13T19:31:30.710Z,3.70
2017-09-13T19:32:30.699Z,3.80
2017-09-13T19:33:30.698Z,4.10
2017-09-13T19:34:30.695Z,4.30
2017-09-13T19:35:30.694Z,4.10
2017-09-13T19:36:30.694Z,4.20
2017-09-13T19:37:30.696Z,4.10
2017-09-13T19:38:30.688Z,4.00
2017-09-13T19:39:30.685Z,4.50
2017-09-13T19:40:30.689Z,4.30
2017-09-13T19:41:30.682Z,4.50
2017-09-13T19:42:30.683Z,4.00
2017-09-13T19:43:30.679Z,3.60
2017-09-13T19:44:30.685Z,4.10
2017-09-13T19:45:30.696Z,5.20
2017-09-13T19:46:30.684Z,4.50
2017-09-13T19:47:30.671Z,4.30
2017-09-13T19:48:30.688Z,4.90
2017-09-13T19:49:30.662Z,5.00
2017-09-13T19:50:30.664Z,3.80
2017-09-13T19:51:30.669Z,4.20
2017-09-13T19:52:30.654Z,4.00
2017-09-13T19:53:30.652Z,3.80
2017-09-13T19:54:30.669Z,4.10
2017-09-13T19:55:30.650Z,4.10
2017-09-13T19:56:30.657Z,4.00
2017-09-13T19:57:30.648Z,3.90
2017-09-13T19:58:30.646Z,4.00
2017-09-13T19:59:30.644Z,4.20
2017-09-13T20:00:30.643Z,4.30
2017-09-13T20:01:30.639Z,3.90
2017-09-13T20:02:30.638Z,4.10
2017-09-13T20:03:30.636Z,3.90
2017-09-13T20:04:30.629Z,3.60
2017-09-13T20:05:30.626Z,4.50
2017-09-13T20:06:30.624Z,3.90
2017-09-13T20:07:30.637Z,4.00
2017-09-13T20:08:30.623Z,3.90
2017-09-13T20:09:30.621Z,4.30
2017-09-13T20:10:30.620Z,4.50
2017-09-13T20:11:30.619Z,4.40
2017-09-13T20:12:30.612Z,4.60
2017-09-13T20:13:30.610Z,4.00
2017-09-13T20:14:30.608Z,4.40
2017-09-13T20:15:30.605Z,4.90
2017-09-13T20:16:30.601Z,4.00
2017-09-13T20:17:30.602Z,4.20
2017-09-13T20:18:30.601Z,4.40
2017-09-13T20:19:30.598Z,4.00
2017-09-13T20:20:30.600Z,4.10
2017-09-13T20:21:30.597Z,4.60
2017-09-13T20:22:30.599Z,4.30
2017-09-13T20:23:30.605Z,4.30
2017-09-13T20:24:30.592Z,4.50
2017-09-13T20:25:30.590Z,4.20
2017-09-13T20:26:30.588Z,4.20
2017-09-13T20:27:30.586Z,4.50
2017-09-13T20:28:30.579Z,4.80
2017-09-13T20:29:30.579Z,4.30
2017-09-13T20:30:30.576Z,4.30
2017-09-13T20:31:30.574Z,4.20
2017-09-13T20:32:30.590Z,4.50
2017-09-13T20:33:30.570Z,3.80
2017-09-13T20:34:30.569Z,4.30
2017-09-13T20:35:30.567Z,4.10
2017-09-13T20:36:30.569Z,4.20
2017-09-13T20:37:30.568Z,4.50
2017-09-13T20:38:30.566Z,4.70
2017-09-13T20:39:30.564Z,4.50
2017-09-13T20:40:30.563Z,4.60
2017-09-13T20:41:30.560Z,4.50
2017-09-13T20:42:30.559Z,4.70
2017-09-13T20:43:30.557Z,4.20
2017-09-13T20:44:30.552Z,4.50
2017-09-13T20:45:30.549Z,4.50
2017-09-13T20:46:30.546Z,5.40
2017-09-13T20:47:30.546Z,4.50
2017-09-13T20:48:30.544Z,4.90
2017-09-13T20:49:30.542Z,5.00
2017-09-13T20:50:30.540Z,4.30
2017-09-13T20:51:30.539Z,5.00
2017-09-13T20:52:30.540Z,4.70
2017-09-13T20:53:30.540Z,4.60
2017-09-13T20:54:30.544Z,4.60
2017-09-13T20:55:30.570Z,4.90
2017-09-13T20:56:30.533Z,4.90
2017-09-13T20:57:30.533Z,5.40
2017-09-13T20:58:30.531Z,4.90
2017-09-13T20:59:30.529Z,5.00
2017-09-13T21:00:30.523Z,5.00
2017-09-13T21:01:30.520Z,5.00
2017-09-13T21:02:30.519Z,5.10
2017-09-13T21:03:30.524Z,5.40
2017-09-13T21:04:30.519Z,5.30
2017-09-13T21:05:30.514Z,5.00
2017-09-13T21:06:30.516Z,5.50
2017-09-13T21:07:30.513Z,4.90
2017-09-13T21:08:30.513Z,5.30
2017-09-13T21:09:30.512Z,5.70
2017-09-13T21:10:30.510Z,5.70
2017-09-13T21:11:30.508Z,5.40
2017-09-13T21:12:30.503Z,5.60
2017-09-13T21:13:30.502Z,5.70
2017-09-13T21:14:30.499Z,4.80
2017-09-13T21:15:30.501Z,5.50
2017-09-13T21:16:30.500Z,5.20
2017-09-13T21:17:30.497Z,5.10
2017-09-13T21:18:30.497Z,6.10
2017-09-13T21:19:30.495Z,5.90
2017-09-13T21:20:30.493Z,5.60
2017-09-13T21:21:30.491Z,6.20
2017-09-13T21:22:30.490Z,5.60
2017-09-13T21:23:30.489Z,6.40
2017-09-13T21:24:30.482Z,5.40
2017-09-13T21:25:30.488Z,6.40
2017-09-13T21:26:30.479Z,6.20
2017-09-13T21:27:30.477Z,6.50
2017-09-13T21:28:30.483Z,5.80
2017-09-13T21:29:30.474Z,6.60
2017-09-13T21:30:30.471Z,5.60
2017-09-13T21:31:30.470Z,6.30
2017-09-13T21:32:30.472Z,6.80
2017-09-13T21:33:30.478Z,6.20
2017-09-13T21:34:30.469Z,6.90
2017-09-13T21:35:30.468Z,6.90
2017-09-13T21:36:30.465Z,6.80
2017-09-13T21:37:30.462Z,6.80
2017-09-13T21:38:30.463Z,6.60
2017-09-13T21:39:30.461Z,6.90
2017-09-13T21:40:30.454Z,6.50
2017-09-13T21:41:30.453Z,6.10
2017-09-13T21:42:30.453Z,6.60
2017-09-13T21:43:30.449Z,7.10
2017-09-13T21:44:30.448Z,7.30
2017-09-13T21:45:30.444Z,6.40
2017-09-13T21:46:30.445Z,7.10
2017-09-13T21:47:30.442Z,7.60
2017-09-13T21:48:30.443Z,7.50
2017-09-13T21:49:30.442Z,7.40
2017-09-13T21:50:30.441Z,7.50
2017-09-13T21:51:30.439Z,7.00
2017-09-13T21:52:30.435Z,6.90
2017-09-13T21:53:30.437Z,7.00
2017-09-13T21:54:30.434Z,6.70
2017-09-13T21:55:30.432Z,6.70
2017-09-13T21:56:30.425Z,7.30
2017-09-13T21:57:30.424Z,6.80
2017-09-13T21:58:30.421Z,6.60
2017-09-13T21:59:30.421Z,7.20
2017-09-13T22:00:30.418Z,6.50
2017-09-13T22:01:30.417Z,7.00
2017-09-13T22:02:30.415Z,6.90
2017-09-13T22:03:30.415Z,6.80
2017-09-13T22:04:30.415Z,6.90
2017-09-13T22:05:30.412Z,6.80
2017-09-13T22:06:30.412Z,6.80
2017-09-13T22:07:30.410Z,6.30
2017-09-13T22:08:30.406Z,6.90
2017-09-13T22:09:30.406Z,5.90
2017-09-13T22:10:30.404Z,5.60
2017-09-13T22:11:30.402Z,6.10
2017-09-13T22:12:30.406Z,6.10
2017-09-13T22:13:30.399Z,5.70
2017-09-13T22:14:30.398Z,5.70
2017-09-13T22:15:30.389Z,6.20
2017-09-13T22:16:30.392Z,5.70
2017-09-13T22:17:30.408Z,6.10
2017-09-13T22:18:30.412Z,5.40
2017-09-13T22:19:30.391Z,5.30
2017-09-13T22:20:30.394Z,5.60
2017-09-13T22:21:30.378Z,5.90
2017-09-13T22:22:30.375Z,6.10
2017-09-13T22:23:30.373Z,6.60
2017-09-13T22:24:30.371Z,6.30
2017-09-13T22:25:30.370Z,6.40
2017-09-13T22:26:30.367Z,5.40
2017-09-13T22:27:30.366Z,6.20
2017-09-13T22:35:37.249Z,4.80
2017-09-13T22:36:24.512Z,5.50
2017-09-13T22:37:24.508Z,5.40
2017-09-13T22:38:24.504Z,6.00
2017-09-13T22:39:24.502Z,5.60
2017-09-13T22:40:24.501Z,5.20
2017-09-13T22:41:24.503Z,4.80
2017-09-13T22:42:24.501Z,4.70
2017-09-13T22:43:24.500Z,4.80
2017-09-13T22:44:24.500Z,4.60
2017-09-13T22:45:24.496Z,4.80
2017-09-13T22:46:24.497Z,4.80
2017-09-13T22:47:24.493Z,4.70
2017-09-13T22:48:24.493Z,4.80
2017-09-13T22:49:24.489Z,4.80
2017-09-13T22:50:24.487Z,4.60
2017-09-13T22:51:24.484Z,4.40
2017-09-13T22:52:24.483Z,4.70
2017-09-13T22:53:24.480Z,4.60
2017-09-13T22:54:24.473Z,4.70
2017-09-13T22:55:24.472Z,4.90
2017-09-13T22:56:24.468Z,4.30
2017-09-13T22:57:24.467Z,4.20
2017-09-13T22:58:24.464Z,4.50
2017-09-13T22:59:24.460Z,4.50
2017-09-13T23:00:24.459Z,4.60
2017-09-13T23:01:24.455Z,4.60
2017-09-13T23:02:24.457Z,4.10
2017-09-13T23:03:24.455Z,4.60
2017-09-13T23:04:24.451Z,4.10
2017-09-13T23:05:24.450Z,3.90
2017-09-13T23:06:24.447Z,4.60
2017-09-13T23:07:24.445Z,4.20
2017-09-13T23:13:54.251Z,4.10
2017-09-13T23:14:35.042Z,4.20
2017-09-13T23:15:35.047Z,4.20
2017-09-13T23:16:35.037Z,4.30
2017-09-13T23:17:35.034Z,4.00
2017-09-13T23:18:35.032Z,4.30
2017-09-13T23:19:35.029Z,4.60
2017-09-13T23:20:35.036Z,4.10
2017-09-13T23:21:35.023Z,4.50
2017-09-13T23:22:35.022Z,4.40
2017-09-13T23:23:35.026Z,5.30
2017-09-13T23:24:35.027Z,4.70
2017-09-13T23:25:35.022Z,4.80
2017-09-13T23:26:35.022Z,4.70
2017-09-13T23:27:35.017Z,4.80
2017-09-13T23:28:35.016Z,4.70
2017-09-13T23:29:35.014Z,4.20
2017-09-13T23:30:35.010Z,4.00
2017-09-13T23:31:35.007Z,4.20
2017-09-13T23:32:35.000Z,4.50
2017-09-13T23:33:34.999Z,4.10
2017-09-13T23:34:34.996Z,4.20
2017-09-13T23:35:34.993Z,3.90
2017-09-13T23:36:35.292Z,4.50
2017-09-13T23:37:34.987Z,5.30
2017-09-13T23:38:34.986Z,4.20
2017-09-13T23:39:34.982Z,4.20
2017-09-13T23:40:34.983Z,4.10
2017-09-13T23:41:34.981Z,4.50
2017-09-13T23:42:34.980Z,4.20
2017-09-13T23:43:34.976Z,4.30
2017-09-13T23:44:34.973Z,4.30
2017-09-13T23:45:34.970Z,3.80
2017-09-13T23:46:34.969Z,4.00
2017-09-13T23:47:34.965Z,4.60
2017-09-13T23:48:34.958Z,4.40
2017-09-13T23:49:34.957Z,3.90
2017-09-13T23:50:34.957Z,4.60
2017-09-13T23:51:34.951Z,5.00
2017-09-13T23:52:34.950Z,3.80
2017-09-13T23:53:34.946Z,4.40
2017-09-13T23:54:34.944Z,3.90
2017-09-13T23:55:34.940Z,4.20
2017-09-13T23:56:34.942Z,3.90
2017-09-13T23:57:34.941Z,4.10
2017-09-13T23:58:34.938Z,4.50
2017-09-13T23:59:34.935Z,4.20
